createdAt,value
2022-11-04T00:00:04.627Z,11.00
2022-11-04T00:02:52.084Z,11.10
2022-11-04T00:05:39.587Z,11.20
2022-11-04T00:08:27.094Z,11.30
2022-11-04T00:11:33.281Z,11.40
2022-11-04T00:14:21.341Z,11.50
2022-11-04T00:17:24.797Z,11.60
2022-11-04T00:20:31.111Z,11.60
2022-11-04T00:23:37.528Z,11.70
2022-11-04T00:26:43.859Z,11.70
2022-11-04T00:29:31.352Z,11.70
2022-11-04T00:32:37.547Z,11.80
2022-11-04T00:35:25.007Z,11.80
2022-11-04T00:38:12.418Z,11.90
2022-11-04T00:40:59.863Z,12.00
2022-11-04T00:43:47.257Z,12.00
2022-11-04T00:46:35.321Z,12.00
2022-11-04T00:49:22.835Z,12.00
2022-11-04T00:52:10.346Z,11.90
2022-11-04T00:54:57.836Z,11.90
2022-11-04T00:57:45.292Z,11.80
2022-11-04T01:00:32.772Z,11.90
2022-11-04T01:03:20.207Z,11.90
2022-11-04T01:06:07.796Z,11.90
2022-11-04T01:09:06.243Z,11.80
2022-11-04T01:11:53.807Z,11.80
2022-11-04T01:14:41.352Z,11.80
2022-11-04T01:17:28.942Z,11.80
2022-11-04T01:20:17.543Z,11.70
2022-11-04T01:23:05.025Z,11.70
2022-11-04T01:25:52.512Z,11.60
2022-11-04T01:28:40.188Z,11.60
2022-11-04T01:31:31.343Z,11.60
2022-11-04T01:34:18.935Z,11.70
2022-11-04T01:37:06.529Z,11.80
2022-11-04T01:39:53.962Z,11.70
2022-11-04T01:42:41.502Z,11.70
2022-11-04T01:45:29.022Z,11.70
2022-11-04T01:48:24.752Z,11.70
2022-11-04T01:51:13.853Z,11.60
2022-11-04T01:54:04.412Z,11.60
2022-11-04T01:56:52.851Z,11.60
2022-11-04T01:59:42.073Z,11.50
2022-11-04T02:02:30.027Z,11.50
2022-11-04T02:05:18.906Z,11.50
2022-11-04T02:08:09.621Z,11.40
2022-11-04T02:11:03.946Z,11.30
2022-11-04T02:13:51.567Z,11.20
2022-11-04T02:16:48.473Z,11.10
2022-11-04T02:20:06.702Z,10.90
2022-11-04T02:23:27.972Z,10.90
2022-11-04T02:26:55.777Z,10.80
2022-11-04T02:29:59.346Z,10.80
2022-11-04T02:33:26.257Z,10.80
2022-11-04T02:37:13.186Z,10.80
2022-11-04T02:40:28.391Z,10.70
2022-11-04T02:43:53.437Z,10.70
2022-11-04T02:47:00.392Z,10.70
2022-11-04T02:50:11.849Z,10.70
2022-11-04T02:53:04.052Z,10.70
2022-11-04T02:55:57.179Z,10.80
2022-11-04T02:58:54.991Z,10.80
2022-11-04T03:01:46.941Z,10.90
2022-11-04T03:04:41.876Z,11.00
2022-11-04T03:07:36.637Z,11.10
2022-11-04T03:10:36.850Z,11.10
2022-11-04T03:13:37.618Z,11.20
2022-11-04T03:16:38.973Z,11.30
2022-11-04T03:19:40.942Z,11.40
2022-11-04T03:22:34.269Z,11.50
2022-11-04T03:25:28.929Z,11.70
2022-11-04T03:28:30.852Z,11.80
2022-11-04T03:31:30.359Z,11.90
2022-11-04T03:34:18.034Z,12.00
2022-11-04T03:37:06.151Z,12.00
2022-11-04T03:39:53.922Z,12.10
2022-11-04T03:42:49.837Z,12.10
2022-11-04T03:45:39.310Z,12.00
2022-11-04T03:48:27.061Z,12.00
2022-11-04T03:51:14.768Z,11.90
2022-11-04T03:54:02.390Z,11.90
2022-11-04T03:57:40.467Z,11.80
2022-11-04T04:00:44.911Z,11.70
2022-11-04T04:03:42.907Z,11.60
2022-11-04T04:06:36.647Z,11.60
2022-11-04T04:10:39.191Z,11.50
2022-11-04T04:13:32.546Z,11.40
2022-11-04T04:16:31.833Z,11.40
2022-11-04T04:19:24.656Z,11.30
2022-11-04T04:22:44.725Z,11.30
2022-11-04T04:25:52.031Z,11.20
2022-11-04T04:28:40.706Z,11.20
2022-11-04T04:31:49.646Z,11.20
2022-11-04T04:34:37.866Z,11.10
2022-11-04T04:37:28.137Z,11.10
2022-11-04T04:40:43.110Z,11.10
2022-11-04T04:43:49.512Z,11.10
2022-11-04T04:46:39.936Z,11.10
2022-11-04T04:49:35.264Z,11.10
2022-11-04T04:52:25.796Z,11.00
2022-11-04T04:55:15.648Z,11.00
2022-11-04T04:58:03.167Z,11.00
2022-11-04T05:00:50.657Z,11.00
2022-11-04T05:03:43.928Z,11.00
2022-11-04T05:06:32.633Z,10.90
2022-11-04T05:09:20.091Z,10.90
2022-11-04T05:12:07.702Z,10.90
2022-11-04T05:14:55.097Z,10.90
2022-11-04T05:17:42.727Z,10.90
2022-11-04T05:20:30.622Z,10.90
2022-11-04T05:23:18.272Z,10.90
2022-11-04T05:26:06.088Z,10.80
2022-11-04T05:28:53.616Z,10.80
2022-11-04T05:31:41.257Z,10.80
2022-11-04T05:34:28.809Z,10.80
2022-11-04T05:37:16.339Z,10.80
2022-11-04T05:40:04.449Z,10.80
2022-11-04T05:42:51.966Z,10.80
2022-11-04T05:45:39.716Z,10.70
2022-11-04T05:48:28.479Z,10.70
2022-11-04T05:51:21.456Z,10.70
2022-11-04T05:54:09.440Z,10.70
2022-11-04T05:56:56.852Z,10.70
2022-11-04T05:59:44.386Z,10.70
2022-11-04T06:02:32.024Z,10.70
2022-11-04T06:05:19.724Z,10.70
2022-11-04T06:08:07.439Z,10.70
2022-11-04T06:10:55.142Z,10.60
2022-11-04T06:13:42.761Z,10.60
2022-11-04T06:16:30.278Z,10.60
2022-11-04T06:19:17.743Z,10.60
2022-11-04T06:22:06.011Z,10.60
2022-11-04T06:24:53.446Z,10.60
2022-11-04T06:27:41.388Z,10.60
2022-11-04T06:30:28.859Z,10.60
2022-11-04T06:33:16.296Z,10.60
2022-11-04T06:36:07.836Z,10.50
2022-11-04T06:38:59.946Z,10.50
2022-11-04T06:41:51.871Z,10.50
2022-11-04T06:44:40.596Z,10.40
2022-11-04T06:47:27.991Z,10.40
2022-11-04T06:50:15.457Z,10.40
2022-11-04T06:53:02.926Z,10.30
2022-11-04T06:55:51.947Z,10.40
2022-11-04T06:58:39.382Z,10.40
2022-11-04T07:01:31.048Z,10.40
2022-11-04T07:04:19.676Z,10.40
2022-11-04T07:07:07.121Z,10.40
2022-11-04T07:09:54.521Z,10.40
2022-11-04T07:12:42.028Z,10.40
2022-11-04T07:15:29.476Z,10.40
2022-11-04T07:18:16.939Z,10.40
2022-11-04T07:21:09.731Z,10.40
2022-11-04T07:23:57.866Z,10.40
2022-11-04T07:26:45.322Z,10.40
2022-11-04T07:29:32.817Z,10.40
2022-11-04T07:32:20.329Z,10.50
2022-11-04T07:35:08.627Z,10.40
2022-11-04T07:37:56.242Z,10.50
2022-11-04T07:40:43.668Z,10.40
2022-11-04T07:43:31.296Z,10.40
2022-11-04T07:46:20.769Z,10.40
2022-11-04T07:49:08.230Z,10.40
2022-11-04T07:51:55.769Z,10.40
2022-11-04T07:54:43.247Z,10.30
2022-11-04T07:57:30.725Z,10.40
2022-11-04T08:00:18.631Z,10.40
2022-11-04T08:03:06.152Z,10.30
2022-11-04T08:06:02.464Z,10.20
2022-11-04T08:08:50.401Z,10.20
2022-11-04T08:11:37.877Z,10.20
2022-11-04T08:14:25.523Z,10.20
2022-11-04T08:17:14.890Z,10.10
2022-11-04T08:20:02.567Z,10.10
2022-11-04T08:22:50.072Z,10.10
2022-11-04T08:25:37.604Z,10.10
2022-11-04T08:28:25.755Z,10.00
2022-11-04T08:31:26.271Z,10.00
2022-11-04T08:34:14.837Z,10.10
2022-11-04T08:37:02.273Z,10.10
2022-11-04T08:39:54.524Z,10.10
2022-11-04T08:43:10.900Z,10.20
2022-11-04T08:51:11.966Z,10.20
2022-11-04T08:54:00.666Z,10.10
2022-11-04T08:56:48.507Z,10.10
2022-11-04T08:59:36.972Z,10.00
2022-11-04T09:02:24.668Z,10.00
2022-11-04T09:05:12.397Z,10.00
2022-11-04T09:08:01.453Z,9.90
2022-11-04T09:10:49.166Z,9.90
2022-11-04T09:13:39.815Z,9.90
2022-11-04T09:16:30.031Z,9.90
2022-11-04T09:19:17.497Z,9.90
2022-11-04T09:22:05.003Z,9.80
2022-11-04T09:24:52.453Z,9.80
2022-11-04T09:27:39.831Z,9.80
2022-11-04T09:30:27.852Z,9.80
2022-11-04T09:33:15.388Z,9.80
2022-11-04T09:36:03.604Z,9.70
2022-11-04T09:38:51.212Z,9.70
2022-11-04T09:42:01.341Z,9.70
2022-11-04T09:48:33.697Z,9.70
2022-11-04T09:51:52.712Z,9.60
2022-11-04T09:55:02.268Z,9.60
2022-11-04T09:57:58.581Z,9.60
2022-11-04T10:01:06.791Z,9.50
2022-11-04T10:04:25.058Z,9.60
2022-11-04T10:07:33.507Z,9.50
2022-11-04T10:10:46.427Z,9.50
2022-11-04T10:14:11.904Z,9.50
2022-11-04T10:17:44.519Z,9.50
2022-11-04T10:20:47.017Z,9.50
2022-11-04T10:23:39.067Z,9.60
2022-11-04T10:26:50.543Z,9.60
2022-11-04T10:30:16.685Z,9.50
2022-11-04T10:33:29.187Z,9.60
2022-11-04T10:36:18.276Z,9.70
2022-11-04T10:39:23.257Z,9.70
2022-11-04T10:42:16.579Z,9.80
2022-11-04T10:45:04.426Z,9.80
2022-11-04T10:48:54.142Z,9.70
2022-11-04T10:51:41.607Z,9.80
2022-11-04T10:54:40.936Z,9.70
2022-11-04T10:57:28.758Z,9.70
2022-11-04T11:00:41.400Z,9.70
2022-11-04T11:03:35.315Z,9.70
2022-11-04T11:06:35.790Z,9.70
2022-11-04T11:09:30.747Z,9.60
2022-11-04T11:12:50.086Z,9.60
2022-11-04T11:15:41.372Z,9.60
2022-11-04T11:18:29.651Z,9.60
2022-11-04T11:21:23.961Z,9.60
2022-11-04T11:24:20.612Z,9.50
2022-11-04T11:27:16.922Z,9.40
2022-11-04T11:30:04.884Z,9.30
2022-11-04T11:33:20.087Z,9.20
2022-11-04T11:36:23.286Z,9.20
2022-11-04T11:39:17.498Z,9.20
2022-11-04T11:42:11.616Z,9.20
2022-11-04T11:45:00.244Z,9.20
2022-11-04T11:47:52.523Z,9.10
2022-11-04T11:51:00.251Z,9.10
2022-11-04T11:54:24.948Z,9.10
2022-11-04T11:57:46.643Z,9.10
2022-11-04T12:01:09.912Z,9.00
2022-11-04T12:11:29.007Z,8.90
2022-11-04T12:14:46.105Z,8.80
2022-11-04T12:17:57.658Z,8.80
2022-11-04T12:21:06.886Z,8.80
2022-11-04T12:24:20.808Z,8.80
2022-11-04T12:27:52.573Z,8.80
2022-11-04T12:31:34.652Z,8.80
2022-11-04T12:35:00.192Z,8.80
2022-11-04T12:38:20.594Z,8.80
2022-11-04T12:42:06.411Z,8.80
2022-11-04T12:45:04.996Z,8.80
2022-11-04T12:48:05.032Z,8.80
2022-11-04T12:51:22.253Z,8.80
2022-11-04T12:54:42.927Z,8.80
2022-11-04T12:57:48.307Z,8.80
2022-11-04T13:00:41.307Z,8.80
2022-11-04T13:03:35.277Z,8.70
2022-11-04T13:06:57.787Z,8.70
2022-11-04T13:10:04.167Z,8.60
2022-11-04T13:12:56.032Z,8.40
2022-11-04T13:15:58.299Z,8.30
2022-11-04T13:18:48.035Z,8.20
2022-11-04T13:21:38.644Z,8.10
2022-11-04T13:24:32.061Z,8.00
2022-11-04T13:27:36.597Z,7.80
2022-11-04T13:30:49.982Z,7.60
2022-11-04T13:34:00.824Z,7.50
2022-11-04T13:37:09.476Z,7.30
2022-11-04T13:40:31.722Z,7.20
2022-11-04T13:43:39.535Z,7.00
2022-11-04T13:46:33.548Z,6.80
2022-11-04T13:49:32.585Z,6.70
2022-11-04T13:52:20.829Z,6.50
2022-11-04T13:55:21.704Z,6.40
2022-11-04T13:58:25.728Z,6.30
2022-11-04T14:01:29.820Z,6.10
2022-11-04T14:04:31.852Z,6.00
2022-11-04T14:07:19.427Z,6.00
2022-11-04T14:10:48.867Z,6.00
2022-11-04T14:13:37.925Z,6.00
2022-11-04T14:16:37.957Z,6.00
2022-11-04T14:20:14.136Z,6.00
2022-11-04T14:23:04.033Z,6.10
2022-11-04T14:26:06.109Z,6.10
2022-11-04T14:29:19.307Z,6.10
2022-11-04T14:32:13.076Z,6.10
2022-11-04T14:35:05.173Z,6.10
2022-11-04T14:37:56.049Z,6.10
2022-11-04T14:41:12.194Z,6.10
2022-11-04T14:44:07.220Z,6.20
2022-11-04T14:47:01.036Z,6.30
2022-11-04T14:50:04.812Z,6.30
2022-11-04T14:52:58.927Z,6.40
2022-11-04T14:55:46.525Z,6.40
2022-11-04T14:58:34.033Z,6.50
2022-11-04T15:01:23.328Z,6.40
2022-11-04T15:04:27.271Z,6.40
2022-11-04T15:07:45.171Z,6.40
2022-11-04T15:10:33.866Z,6.30
2022-11-04T15:13:21.732Z,6.40
2022-11-04T15:16:25.881Z,6.40
2022-11-04T15:19:34.497Z,6.40
2022-11-04T15:22:23.377Z,6.40
2022-11-04T15:25:11.993Z,6.40
2022-11-04T15:28:00.011Z,6.40
2022-11-04T15:31:28.162Z,6.40
2022-11-04T15:34:17.046Z,6.40
2022-11-04T15:37:06.443Z,6.40
2022-11-04T15:39:58.463Z,6.40
2022-11-04T15:42:48.098Z,6.40
2022-11-04T15:45:47.123Z,6.40
2022-11-04T15:48:37.989Z,6.40
2022-11-04T15:51:29.431Z,6.40
2022-11-04T15:54:48.887Z,6.50
2022-11-04T15:57:40.870Z,6.50
2022-11-04T16:00:29.161Z,6.50
2022-11-04T16:03:22.720Z,6.50
2022-11-04T16:06:11.757Z,6.50
2022-11-04T16:09:20.430Z,6.50
2022-11-04T16:12:27.378Z,6.50
2022-11-04T16:15:42.305Z,6.60
2022-11-04T16:18:42.123Z,6.60
2022-11-04T16:21:36.075Z,6.60
2022-11-04T16:24:29.549Z,6.60
2022-11-04T16:27:21.904Z,6.60
2022-11-04T16:30:25.125Z,6.60
2022-11-04T16:33:18.517Z,6.60
2022-11-04T16:36:23.506Z,6.70
2022-11-04T16:39:11.112Z,6.70
2022-11-04T16:41:59.312Z,6.70
2022-11-04T16:44:54.536Z,6.70
2022-11-04T16:47:42.546Z,6.70
2022-11-04T16:50:34.228Z,6.70
2022-11-04T16:53:21.741Z,6.70
2022-11-04T16:56:09.372Z,6.80
2022-11-04T16:58:56.942Z,6.80
2022-11-04T17:01:44.481Z,6.80
2022-11-04T17:04:32.093Z,6.80
2022-11-04T17:07:19.651Z,6.80
2022-11-04T17:10:18.777Z,6.80
2022-11-04T17:13:06.296Z,6.90
2022-11-04T17:15:54.639Z,6.90
2022-11-04T17:18:42.441Z,6.90
2022-11-04T17:21:30.002Z,6.90
2022-11-04T17:24:17.806Z,6.90
2022-11-04T17:27:06.532Z,7.00
2022-11-04T17:29:54.049Z,7.00
2022-11-04T17:32:43.471Z,7.00
2022-11-04T17:35:31.032Z,7.00
2022-11-04T17:38:19.756Z,7.00
2022-11-04T17:41:26.026Z,7.00
2022-11-04T17:44:13.554Z,7.00
2022-11-04T17:47:01.126Z,7.00
2022-11-04T17:49:49.319Z,7.10
2022-11-04T17:52:37.961Z,7.10
2022-11-04T17:55:27.650Z,7.10
2022-11-04T17:58:16.444Z,7.10
2022-11-04T18:01:09.106Z,7.10
2022-11-04T18:03:58.402Z,7.10
2022-11-04T18:06:46.920Z,7.20
2022-11-04T18:09:36.501Z,7.20
2022-11-04T18:12:41.746Z,7.20
2022-11-04T18:15:30.386Z,7.20
2022-11-04T18:18:17.932Z,7.20
2022-11-04T18:21:08.637Z,7.20
2022-11-04T18:23:56.509Z,7.20
2022-11-04T18:26:44.361Z,7.20
2022-11-04T18:29:31.910Z,7.20
2022-11-04T18:32:19.467Z,7.20
2022-11-04T18:35:08.627Z,7.20
2022-11-04T18:37:56.167Z,7.30
2022-11-04T18:40:43.836Z,7.20
2022-11-04T18:43:31.327Z,7.20
2022-11-04T18:46:20.087Z,7.20
2022-11-04T18:49:07.527Z,7.20
2022-11-04T18:51:55.397Z,7.20
2022-11-04T18:54:46.322Z,7.20
2022-11-04T18:57:34.259Z,7.20
2022-11-04T19:00:22.628Z,7.20
2022-11-04T19:03:11.060Z,7.20
2022-11-04T19:05:58.607Z,7.20
2022-11-04T19:08:47.157Z,7.20
2022-11-04T19:11:39.746Z,7.20
2022-11-04T19:14:27.162Z,7.30
2022-11-04T19:17:15.050Z,7.20
2022-11-04T19:20:08.357Z,7.30
2022-11-04T19:22:59.057Z,7.30
2022-11-04T19:25:46.607Z,7.30
2022-11-04T19:28:46.895Z,7.30
2022-11-04T19:31:38.606Z,7.30
2022-11-04T19:34:26.254Z,7.30
2022-11-04T19:37:13.962Z,7.30
2022-11-04T19:40:01.446Z,7.30
2022-11-04T19:43:07.613Z,7.30
2022-11-04T19:45:57.723Z,7.30
2022-11-04T19:48:47.522Z,7.30
2022-11-04T19:51:37.750Z,7.30
2022-11-04T19:54:25.302Z,7.30
2022-11-04T19:57:12.904Z,7.30
2022-11-04T20:00:00.407Z,7.30
2022-11-04T20:02:47.914Z,7.40
2022-11-04T20:05:42.129Z,7.40
2022-11-04T20:08:29.808Z,7.40
2022-11-04T20:11:18.952Z,7.40
2022-11-04T20:14:08.180Z,7.40
2022-11-04T20:16:55.974Z,7.40
2022-11-04T20:19:43.442Z,7.40
2022-11-04T20:22:30.967Z,7.40
2022-11-04T20:25:18.647Z,7.40
2022-11-04T20:28:06.134Z,7.40
2022-11-04T20:30:53.643Z,7.40
2022-11-04T20:33:41.292Z,7.40
2022-11-04T20:36:29.566Z,7.40
2022-11-04T20:39:20.442Z,7.30
2022-11-04T20:42:07.967Z,7.30
2022-11-04T20:44:55.602Z,7.30
2022-11-04T20:47:43.502Z,7.30
2022-11-04T20:50:31.307Z,7.30
2022-11-04T20:53:18.815Z,7.30
2022-11-04T20:56:10.042Z,7.30
2022-11-04T20:58:59.937Z,7.30
2022-11-04T21:01:50.369Z,7.30
2022-11-04T21:04:38.344Z,7.30
2022-11-04T21:07:25.842Z,7.30
2022-11-04T21:10:13.341Z,7.30
2022-11-04T21:13:00.822Z,7.30
2022-11-04T21:15:57.916Z,7.30
2022-11-04T21:18:45.787Z,7.30
2022-11-04T21:21:33.370Z,7.30
2022-11-04T21:24:21.005Z,7.30
2022-11-04T21:27:08.568Z,7.30
2022-11-04T21:29:56.813Z,7.30
2022-11-04T21:32:44.266Z,7.30
2022-11-04T21:35:35.862Z,7.30
2022-11-04T21:38:23.595Z,7.30
2022-11-04T21:41:15.988Z,7.30
2022-11-04T21:44:08.528Z,7.30
2022-11-04T21:46:56.037Z,7.30
2022-11-04T21:49:43.487Z,7.30
2022-11-04T21:52:31.900Z,7.20
2022-11-04T21:55:19.589Z,7.20
2022-11-04T21:58:07.158Z,7.20
2022-11-04T22:00:57.887Z,7.20
2022-11-04T22:03:51.881Z,7.20
2022-11-04T22:06:39.462Z,7.30
2022-11-04T22:09:26.982Z,7.20
2022-11-04T22:12:14.408Z,7.30
2022-11-04T22:15:01.889Z,7.30
2022-11-04T22:17:49.335Z,7.30
2022-11-04T22:20:37.912Z,7.20
2022-11-04T22:23:25.436Z,7.20
2022-11-04T22:26:21.632Z,7.20
2022-11-04T22:29:10.734Z,7.20
2022-11-04T22:31:58.143Z,7.20
2022-11-04T22:34:45.558Z,7.10
2022-11-04T22:37:33.248Z,7.10
2022-11-04T22:40:21.933Z,7.10
2022-11-04T22:43:09.702Z,7.10
2022-11-04T22:45:58.662Z,7.10
2022-11-04T22:48:46.993Z,7.10
2022-11-04T22:51:34.472Z,7.10
2022-11-04T22:54:22.023Z,7.10
2022-11-04T22:57:09.558Z,7.20
2022-11-04T22:59:57.117Z,7.20
2022-11-04T23:02:45.620Z,7.20
2022-11-04T23:05:34.368Z,7.20
2022-11-04T23:08:22.193Z,7.30
2022-11-04T23:11:36.527Z,7.30
2022-11-04T23:14:42.779Z,7.30
2022-11-04T23:17:48.843Z,7.30
2022-11-04T23:20:36.363Z,7.40
2022-11-04T23:23:42.592Z,7.40
2022-11-04T23:26:31.000Z,7.40
2022-11-04T23:29:37.879Z,7.40
2022-11-04T23:32:27.408Z,7.40
2022-11-04T23:35:34.141Z,7.50
2022-11-04T23:38:22.992Z,7.40
2022-11-04T23:41:29.272Z,7.40
2022-11-04T23:44:36.653Z,7.40
2022-11-04T23:47:42.731Z,7.40
2022-11-04T23:50:53.483Z,7.40
2022-11-04T23:53:59.867Z,7.40
2022-11-04T23:57:06.089Z,7.40
